Time;durP1;ratioP1;P1;durP2;ratioP2;P2;SDS_P1;SDS_P2;PMS_P1;PMS_P2;Temp;Humidity;BMP_temperature;BMP_pressure;BME280_temperature;BME280_humidity;BME280_pressure;Samples;Min_cycle;Max_cycle;Signal;HPM_P1;HPM_P2
2024/01/21 00:00:26;;;;;;;;;;;;;;;-7.58;100.00;98611.77;110374;1243;69276;-58
2024/01/21 00:03:16;;;;;;;;;;;;;;;-7.59;100.00;98610.36;110333;1238;60474;-57
2024/01/21 00:05:45;;;;;;;;;;;;;;;-7.60;100.00;98614.41;110411;1242;60502;-56
2024/01/21 00:08:16;;;;;;;;;;;;;;;-7.59;100.00;98612.56;110400;1241;72059;-56
2024/01/21 00:10:45;;;;;;;;;;;;;;;-7.60;100.00;98615.44;110370;1242;68241;-55
2024/01/21 00:13:15;;;;;;;;;;;;;;;-7.63;100.00;98613.86;110371;1242;68524;-57
2024/01/21 00:15:45;;;;;;;;;;;;;;;-7.65;100.00;98614.50;110403;1241;60498;-57
2024/01/21 00:18:18;;;;;;;;;;;;;;;-7.66;100.00;98613.98;110373;1241;60435;-54
2024/01/21 00:20:48;;;;;;;;;;;;;;;-7.64;99.89;98611.63;110398;1241;72494;-57
2024/01/21 00:23:20;;;;;;;;;;;;;;;-7.64;99.42;98610.79;110370;1238;68871;-56
2024/01/21 00:25:50;;;;;;;;;;;;;;;-7.64;100.00;98616.38;110369;1242;68718;-57
2024/01/21 00:28:22;;;;;;;;;;;;;;;-7.65;100.00;98617.54;110372;1243;60497;-57
2024/01/21 00:30:52;;;;;;;;;;;;;;;-7.68;100.00;98619.35;110362;1242;61189;-55
2024/01/21 00:33:22;;;;;;;;;;;;;;;-7.70;100.00;98622.38;110410;1244;72008;-55
2024/01/21 00:35:52;;;;;;;;;;;;;;;-7.72;100.00;98625.72;110387;1247;67987;-57
2024/01/21 00:38:23;;;;;;;;;;;;;;;-7.74;100.00;98625.84;110329;1244;68447;-54
2024/01/21 00:40:53;;;;;;;;;;;;;;;-7.77;100.00;98627.46;110375;1242;60464;-55
2024/01/21 00:43:22;;;;;;;;;;;;;;;-7.81;100.00;98628.77;110396;1244;60435;-57
2024/01/21 00:45:53;;;;;;;;;;;;;;;-7.83;100.00;98634.30;110382;1242;72661;-57
2024/01/21 00:48:24;;;;;;;;;;;;;;;-7.86;100.00;98634.59;110363;1240;69303;-56
2024/01/21 00:50:54;;;;;;;;;;;;;;;-7.89;100.00;98633.00;110344;1243;69809;-55
2024/01/21 00:53:24;;;;;;;;;;;;;;;-7.91;100.00;98635.83;110498;1246;60544;-55
2024/01/21 00:55:56;;;;;;;;;;;;;;;-7.94;100.00;98635.27;110428;1242;60630;-57
2024/01/21 00:58:26;;;;;;;;;;;;;;;-7.93;100.00;98634.45;110411;1241;71489;-57
2024/01/21 01:00:57;;;;;;;;;;;;;;;-7.91;100.00;98638.55;110592;1243;68576;-57
2024/01/21 01:03:28;;;;;;;;;;;;;;;-7.87;100.00;98638.95;110518;1242;69452;-54
2024/01/21 01:06:00;;;;;;;;;;;;;;;-7.84;100.00;98638.67;110414;1239;60489;-55
2024/01/21 01:08:31;;;;;;;;;;;;;;;-7.85;100.00;98636.80;110382;1248;60479;-56
2024/01/21 01:11:01;;;;;;;;;;;;;;;-7.88;100.00;98636.06;110376;1243;71517;-54
2024/01/21 01:13:32;;;;;;;;;;;;;;;-7.92;100.00;98637.50;110394;1243;69857;-57
2024/01/21 01:16:02;;;;;;;;;;;;;;;-7.99;100.00;98634.66;110402;1242;69164;-56
2024/01/21 01:18:35;;;;;;;;;;;;;;;-8.05;100.00;98629.46;110421;1242;60538;-54
2024/01/21 01:21:05;;;;;;;;;;;;;;;-8.13;100.00;98627.77;110408;1242;60470;-54
2024/01/21 01:23:36;;;;;;;;;;;;;;;-8.17;100.00;98627.35;110449;1242;72165;-57
2024/01/21 01:26:07;;;;;;;;;;;;;;;-8.19;100.00;98625.27;110470;1241;69247;-56
2024/01/21 01:28:36;;;;;;;;;;;;;;;-8.19;100.00;98624.60;110377;1242;69890;-56
2024/01/21 01:31:16;;;;;;;;;;;;;;;-8.20;100.00;98626.30;110404;1241;60473;-55
2024/01/21 01:33:46;;;;;;;;;;;;;;;-8.20;100.00;98620.36;110462;1241;60436;-56
2024/01/21 01:36:17;;;;;;;;;;;;;;;-8.17;100.00;98623.12;110445;1239;72577;-57
2024/01/21 01:38:47;;;;;;;;;;;;;;;-8.16;100.00;98621.12;110481;1242;69318;-55
2024/01/21 01:41:18;;;;;;;;;;;;;;;-8.14;100.00;98623.17;110407;1242;69103;-56
2024/01/21 01:43:49;;;;;;;;;;;;;;;-8.16;100.00;98623.66;110402;1241;60532;-57
2024/01/21 01:46:20;;;;;;;;;;;;;;;-8.18;100.00;98625.46;110353;1243;60478;-56
2024/01/21 01:48:50;;;;;;;;;;;;;;;-8.17;100.00;98626.18;110368;1241;72107;-57
2024/01/21 01:51:21;;;;;;;;;;;;;;;-8.17;100.00;98631.42;110420;1243;68350;-56
2024/01/21 01:53:52;;;;;;;;;;;;;;;-8.16;100.00;98636.02;110334;1242;69356;-56
2024/01/21 01:56:22;;;;;;;;;;;;;;;-8.14;100.00;98639.08;110352;1243;61043;-56
2024/01/21 01:58:53;;;;;;;;;;;;;;;-8.09;100.00;98640.89;110368;1241;60427;-55
2024/01/21 02:01:23;;;;;;;;;;;;;;;-8.04;100.00;98640.15;110367;1241;71385;-56
2024/01/21 02:03:55;;;;;;;;;;;;;;;-8.00;100.00;98648.84;110413;1241;67997;-56
2024/01/21 02:06:25;;;;;;;;;;;;;;;-8.03;100.00;98648.96;110402;1243;69183;-56
2024/01/21 02:08:57;;;;;;;;;;;;;;;-8.07;100.00;98646.84;110479;1239;60519;-55
2024/01/21 02:11:28;;;;;;;;;;;;;;;-8.12;100.00;98645.05;110532;1241;60499;-56
2024/01/21 02:13:58;;;;;;;;;;;;;;;-8.14;100.00;98644.83;110461;1242;72253;-56
2024/01/21 02:16:30;;;;;;;;;;;;;;;-8.15;100.00;98649.55;110378;1241;68584;-57
2024/01/21 02:19:04;;;;;;;;;;;;;;;-8.17;100.00;98659.49;110395;1242;68590;-58
2024/01/21 02:21:34;;;;;;;;;;;;;;;-8.18;100.00;98660.15;110438;1242;60480;-58
2024/01/21 02:24:06;;;;;;;;;;;;;;;-8.20;100.00;98656.05;110492;1243;60443;-57
2024/01/21 02:26:41;;;;;;;;;;;;;;;-8.23;100.00;98658.20;110499;1241;71402;-55
2024/01/21 02:29:11;;;;;;;;;;;;;;;-8.25;100.00;98656.29;110521;1241;68495;-59
2024/01/21 02:31:46;;;;;;;;;;;;;;;-8.29;100.00;98659.59;110371;1241;69295;-57
2024/01/21 02:34:18;;;;;;;;;;;;;;;-8.34;100.00;98658.80;110399;1241;60471;-57
2024/01/21 02:36:50;;;;;;;;;;;;;;;-8.38;100.00;98660.42;110434;1246;60526;-55
2024/01/21 02:39:21;;;;;;;;;;;;;;;-8.43;100.00;98664.04;110396;1242;72546;-58
2024/01/21 02:41:53;;;;;;;;;;;;;;;-8.49;100.00;98669.66;110437;1244;69073;-54
2024/01/21 02:44:26;;;;;;;;;;;;;;;-8.51;100.00;98676.70;110481;1248;69172;-56
2024/01/21 02:46:56;;;;;;;;;;;;;;;-8.54;100.00;98674.10;110496;1242;60465;-56
2024/01/21 02:49:29;;;;;;;;;;;;;;;-8.54;100.00;98673.77;110542;1242;60486;-56
2024/01/21 02:52:00;;;;;;;;;;;;;;;-8.54;100.00;98675.13;110556;1242;72322;-54
2024/01/21 02:54:35;;;;;;;;;;;;;;;-8.55;100.00;98680.14;110399;1249;69283;-58
2024/01/21 02:57:07;;;;;;;;;;;;;;;-8.56;100.00;98684.88;110384;1242;69252;-58
2024/01/21 02:59:39;;;;;;;;;;;;;;;-8.57;100.00;98686.05;110481;1244;60506;-56
2024/01/21 03:02:10;;;;;;;;;;;;;;;-8.60;100.00;98690.37;110453;1242;60553;-56
2024/01/21 03:04:42;;;;;;;;;;;;;;;-8.66;100.00;98687.52;110504;1242;71592;-57
2024/01/21 03:07:12;;;;;;;;;;;;;;;-8.70;100.00;98691.15;110373;1241;69867;-55
2024/01/21 03:09:42;;;;;;;;;;;;;;;-8.72;100.00;98692.45;110555;1243;69285;-57
2024/01/21 03:12:18;;;;;;;;;;;;;;;-8.74;100.00;98688.84;110474;1243;60486;-54
2024/01/21 03:14:50;;;;;;;;;;;;;;;-8.77;100.00;98683.55;110383;1242;60494;-54
2024/01/21 03:17:21;;;;;;;;;;;;;;;-8.80;100.00;98685.16;110489;1249;72197;-53
2024/01/21 03:19:54;;;;;;;;;;;;;;;-8.80;100.00;98690.05;110511;1241;69465;-53
2024/01/21 03:22:27;;;;;;;;;;;;;;;-8.81;100.00;98691.56;110464;1242;69296;-53
2024/01/21 03:25:00;;;;;;;;;;;;;;;-8.82;100.00;98697.27;110505;1242;60506;-55
2024/01/21 03:27:32;;;;;;;;;;;;;;;-8.84;100.00;98695.88;110538;1242;60518;-56
2024/01/21 03:30:02;;;;;;;;;;;;;;;-8.86;100.00;98693.48;110473;1242;72210;-56
2024/01/21 03:32:34;;;;;;;;;;;;;;;-8.87;100.00;98693.12;110456;1242;69086;-56
2024/01/21 03:35:05;;;;;;;;;;;;;;;-8.86;100.00;98695.16;110509;1242;68497;-54
2024/01/21 03:37:38;;;;;;;;;;;;;;;-8.82;100.00;98696.76;110496;1242;60547;-56
2024/01/21 03:40:10;;;;;;;;;;;;;;;-8.78;100.00;98697.20;110459;1241;60495;-57
2024/01/21 03:42:45;;;;;;;;;;;;;;;-8.78;100.00;98699.25;110486;1242;72259;-54
2024/01/21 03:45:16;;;;;;;;;;;;;;;-8.79;100.00;98704.27;110451;1242;69324;-55
2024/01/21 03:47:49;;;;;;;;;;;;;;;-8.80;100.00;98707.13;110426;1242;67679;-54
2024/01/21 03:50:23;;;;;;;;;;;;;;;-8.80;100.00;98708.32;110433;1243;60541;-56
2024/01/21 03:52:54;;;;;;;;;;;;;;;-8.78;100.00;98710.21;110413;1243;60408;-53
2024/01/21 03:55:26;;;;;;;;;;;;;;;-8.76;100.00;98712.80;110542;1242;72190;-54
2024/01/21 03:57:57;;;;;;;;;;;;;;;-8.78;100.00;98716.64;110489;1242;68411;-54
2024/01/21 04:00:27;;;;;;;;;;;;;;;-8.81;100.00;98720.11;110408;1242;69181;-53
2024/01/21 04:02:59;;;;;;;;;;;;;;;-8.84;100.00;98720.71;110345;1242;60493;-58
2024/01/21 04:05:31;;;;;;;;;;;;;;;-8.86;100.00;98723.89;110436;1243;60498;-55
2024/01/21 04:08:05;;;;;;;;;;;;;;;-8.87;100.00;98721.30;110505;1242;72208;-55
2024/01/21 04:10:40;;;;;;;;;;;;;;;-8.88;100.00;98717.73;110512;1241;68790;-56
2024/01/21 04:13:11;;;;;;;;;;;;;;;-8.88;100.00;98719.42;110492;1241;69688;-52
2024/01/21 04:15:43;;;;;;;;;;;;;;;-8.89;100.00;98722.11;110543;1242;60521;-53
2024/01/21 04:18:14;;;;;;;;;;;;;;;-8.90;100.00;98720.06;110570;1242;60476;-54
2024/01/21 04:20:45;;;;;;;;;;;;;;;-8.92;100.00;98719.65;110468;1241;72357;-54
2024/01/21 04:23:17;;;;;;;;;;;;;;;-8.94;100.00;98719.11;110357;1252;69263;-56
2024/01/21 04:25:49;;;;;;;;;;;;;;;-8.97;100.00;98726.96;110511;1241;69308;-53
2024/01/21 04:28:20;;;;;;;;;;;;;;;-8.98;100.00;98737.09;110365;1242;60499;-54
2024/01/21 04:30:52;;;;;;;;;;;;;;;-8.98;100.00;98738.77;110377;1242;60447;-55
2024/01/21 04:33:22;;;;;;;;;;;;;;;-8.96;100.00;98741.36;110425;1242;71441;-56
2024/01/21 04:35:53;;;;;;;;;;;;;;;-8.96;100.00;98741.04;110511;1242;69273;-53
2024/01/21 04:38:25;;;;;;;;;;;;;;;-8.93;100.00;98744.13;110362;1239;69196;-53
2024/01/21 04:40:55;;;;;;;;;;;;;;;-8.89;100.00;98746.61;110361;1240;60506;-56
2024/01/21 04:43:26;;;;;;;;;;;;;;;-8.84;100.00;98742.17;110360;1242;60487;-56
2024/01/21 04:45:57;;;;;;;;;;;;;;;-8.84;100.00;98743.52;110401;1247;71689;-55
2024/01/21 04:48:29;;;;;;;;;;;;;;;-8.88;100.00;98741.91;110420;1241;69212;-54
2024/01/21 04:51:00;;;;;;;;;;;;;;;-8.93;100.00;98744.15;110346;1241;69281;-56
2024/01/21 04:53:30;;;;;;;;;;;;;;;-8.98;100.00;98742.34;110433;1241;60545;-57
2024/01/21 04:56:02;;;;;;;;;;;;;;;-9.06;100.00;98748.88;110356;1242;60476;-55
2024/01/21 04:58:34;;;;;;;;;;;;;;;-9.12;100.00;98757.52;110393;1240;72568;-53
2024/01/21 05:01:04;;;;;;;;;;;;;;;-9.18;100.00;98759.89;110373;1241;69230;-55
2024/01/21 05:03:34;;;;;;;;;;;;;;;-9.20;100.00;98761.84;110327;1241;68337;-54
2024/01/21 05:06:06;;;;;;;;;;;;;;;-9.23;100.00;98762.45;110336;1242;60461;-55
2024/01/21 05:08:36;;;;;;;;;;;;;;;-9.25;100.00;98767.98;110384;1241;60524;-54
2024/01/21 05:11:08;;;;;;;;;;;;;;;-9.23;100.00;98774.10;110383;1241;72444;-56
2024/01/21 05:13:39;;;;;;;;;;;;;;;-9.21;100.00;98773.48;110430;1244;68701;-54
2024/01/21 05:16:19;;;;;;;;;;;;;;;-9.19;100.00;98776.75;110365;1244;69263;-54
2024/01/21 05:18:48;;;;;;;;;;;;;;;-9.20;100.00;98777.71;110359;1241;60498;-56
2024/01/21 05:21:22;;;;;;;;;;;;;;;-9.24;100.00;98773.23;110493;1241;60543;-54
2024/01/21 05:23:51;;;;;;;;;;;;;;;-9.30;100.00;98775.62;110354;1241;71452;-55
2024/01/21 05:26:23;;;;;;;;;;;;;;;-9.33;100.00;98774.00;110408;1241;69217;-55
2024/01/21 05:28:55;;;;;;;;;;;;;;;-9.35;100.00;98760.94;110356;1243;69830;-57
2024/01/21 05:31:28;;;;;;;;;;;;;;;-9.38;100.00;98754.29;110411;1241;60482;-54
2024/01/21 05:33:57;;;;;;;;;;;;;;;-9.44;100.00;98760.01;110393;1241;60937;-56
2024/01/21 05:36:27;;;;;;;;;;;;;;;-9.48;100.00;98759.38;110467;1241;72157;-53
2024/01/21 05:38:57;;;;;;;;;;;;;;;-9.51;100.00;98757.31;110481;1242;68365;-56
2024/01/21 05:41:28;;;;;;;;;;;;;;;-9.53;100.00;98761.98;110490;1238;67520;-53
2024/01/21 05:43:58;;;;;;;;;;;;;;;-9.52;100.00;98774.80;110407;1240;60560;-55
2024/01/21 05:46:27;;;;;;;;;;;;;;;-9.47;100.00;98775.48;110415;1241;60461;-56
2024/01/21 05:48:56;;;;;;;;;;;;;;;-9.43;100.00;98782.83;110397;1241;72054;-53
2024/01/21 05:51:26;;;;;;;;;;;;;;;-9.40;100.00;98795.92;110419;1242;69362;-55
2024/01/21 05:53:55;;;;;;;;;;;;;;;-9.39;100.00;98799.81;110446;1241;68117;-52
2024/01/21 05:56:25;;;;;;;;;;;;;;;-9.34;100.00;98804.53;110375;1243;60440;-56
2024/01/21 05:58:55;;;;;;;;;;;;;;;-9.28;100.00;98813.66;110413;1241;60537;-55
2024/01/21 06:01:25;;;;;;;;;;;;;;;-9.17;100.00;98820.04;110385;1241;72210;-56
2024/01/21 06:03:54;;;;;;;;;;;;;;;-9.05;100.00;98821.21;110357;1238;68823;-54
2024/01/21 06:06:24;;;;;;;;;;;;;;;-8.92;100.00;98817.48;110346;1240;69443;-56
2024/01/21 06:08:54;;;;;;;;;;;;;;;-8.81;100.00;98825.07;110459;1241;60478;-56
2024/01/21 06:11:24;;;;;;;;;;;;;;;-8.69;100.00;98824.52;110411;1242;60488;-56
2024/01/21 06:13:54;;;;;;;;;;;;;;;-8.60;100.00;98829.48;110355;1242;71845;-56
2024/01/21 06:16:24;;;;;;;;;;;;;;;-8.52;100.00;98827.83;110438;1241;67852;-56
2024/01/21 06:18:53;;;;;;;;;;;;;;;-8.45;100.00;98830.02;110364;1242;69853;-55
2024/01/21 06:21:22;;;;;;;;;;;;;;;-8.37;100.00;98834.95;110440;1242;60477;-55
2024/01/21 06:23:52;;;;;;;;;;;;;;;-8.30;100.00;98834.95;110462;1242;60464;-57
2024/01/21 06:26:22;;;;;;;;;;;;;;;-8.20;100.00;98838.05;110506;1238;71416;-56
2024/01/21 06:28:52;;;;;;;;;;;;;;;-8.10;100.00;98844.39;110446;1238;69801;-57
2024/01/21 06:31:22;;;;;;;;;;;;;;;-7.97;100.00;98845.20;110415;1241;68511;-56
2024/01/21 06:33:52;;;;;;;;;;;;;;;-7.84;100.00;98848.20;110333;1241;60940;-55
2024/01/21 06:36:25;;;;;;;;;;;;;;;-7.73;100.00;98854.23;110364;1242;60428;-57
2024/01/21 06:38:55;;;;;;;;;;;;;;;-7.62;100.00;98850.73;110421;1241;71435;-57
2024/01/21 06:41:24;;;;;;;;;;;;;;;-7.54;100.00;98849.23;110425;1242;69389;-56
2024/01/21 06:43:53;;;;;;;;;;;;;;;-7.43;100.00;98853.52;110355;1241;68498;-56
2024/01/21 06:46:22;;;;;;;;;;;;;;;-7.32;100.00;98857.65;110380;1241;60477;-54
2024/01/21 06:48:52;;;;;;;;;;;;;;;-7.21;100.00;98863.48;110456;1248;60460;-57
2024/01/21 06:51:31;;;;;;;;;;;;;;;-7.09;100.00;98867.95;110513;1242;72747;-55
2024/01/21 06:54:03;;;;;;;;;;;;;;;-6.97;100.00;98872.11;110394;1241;69361;-58
2024/01/21 06:56:32;;;;;;;;;;;;;;;-6.87;100.00;98874.50;110480;1241;69685;-54
2024/01/21 06:59:02;;;;;;;;;;;;;;;-6.79;100.00;98882.96;110479;1242;60463;-55
2024/01/21 07:01:31;;;;;;;;;;;;;;;-6.72;100.00;98881.91;110472;1243;60547;-53
2024/01/21 07:04:00;;;;;;;;;;;;;;;-6.62;100.00;98882.78;110428;1241;71219;-55
2024/01/21 07:06:29;;;;;;;;;;;;;;;-6.53;100.00;98882.62;110385;1241;69822;-56
2024/01/21 07:08:58;;;;;;;;;;;;;;;-6.46;100.00;98886.11;110464;1241;69304;-53
2024/01/21 07:11:27;;;;;;;;;;;;;;;-6.41;100.00;98887.07;110486;1241;60494;-55
2024/01/21 07:13:56;;;;;;;;;;;;;;;-6.34;100.00;98888.39;110519;1241;60845;-56
2024/01/21 07:16:25;;;;;;;;;;;;;;;-6.25;100.00;98890.41;110519;1241;72806;-57
2024/01/21 07:18:54;;;;;;;;;;;;;;;-6.16;100.00;98889.38;110449;1241;69288;-57
2024/01/21 07:21:24;;;;;;;;;;;;;;;-6.07;100.00;98887.49;110320;1239;69820;-53
2024/01/21 07:23:53;;;;;;;;;;;;;;;-6.00;100.00;98887.95;110447;1241;60602;-55
2024/01/21 07:26:23;;;;;;;;;;;;;;;-5.97;100.00;98886.98;110478;1241;60474;-54
2024/01/21 07:28:52;;;;;;;;;;;;;;;-5.94;100.00;98887.20;110427;1242;71276;-54
2024/01/21 07:31:22;;;;;;;;;;;;;;;-5.89;100.00;98886.23;110413;1241;69964;-58
2024/01/21 07:33:52;;;;;;;;;;;;;;;-5.83;100.00;98885.46;110396;1241;68546;-57
2024/01/21 07:36:20;;;;;;;;;;;;;;;-5.80;100.00;98880.93;110468;1238;60525;-57
2024/01/21 07:38:49;;;;;;;;;;;;;;;-5.75;100.00;98884.23;110467;1241;60508;-57
2024/01/21 07:41:18;;;;;;;;;;;;;;;-5.74;100.00;98883.91;110417;1240;72754;-57
2024/01/21 07:43:47;;;;;;;;;;;;;;;-5.73;100.00;98888.84;110521;1241;67522;-58
2024/01/21 07:46:17;;;;;;;;;;;;;;;-5.69;100.00;98889.77;110467;1246;69295;-55
2024/01/21 07:48:46;;;;;;;;;;;;;;;-5.69;100.00;98889.41;110414;1240;60501;-57
2024/01/21 07:51:18;;;;;;;;;;;;;;;-5.65;100.00;98894.23;110502;1242;60465;-57
2024/01/21 07:53:47;;;;;;;;;;;;;;;-5.56;100.00;98899.30;110418;1238;71218;-57
2024/01/21 07:56:15;;;;;;;;;;;;;;;-5.47;100.00;98900.13;110485;1241;69821;-57
2024/01/21 07:58:44;;;;;;;;;;;;;;;-5.45;100.00;98905.57;110433;1241;69691;-55
2024/01/21 08:01:14;;;;;;;;;;;;;;;-5.32;100.00;98909.86;110491;1246;60850;-57
2024/01/21 08:03:42;;;;;;;;;;;;;;;-5.23;100.00;98915.26;110450;1238;60529;-53
2024/01/21 08:06:13;;;;;;;;;;;;;;;-5.15;100.00;98917.75;110462;1241;71639;-55
2024/01/21 08:08:42;;;;;;;;;;;;;;;-5.06;100.00;98912.58;110407;1248;70201;-53
2024/01/21 08:11:11;;;;;;;;;;;;;;;-4.94;100.00;98915.29;110468;1241;69564;-55
2024/01/21 08:13:40;;;;;;;;;;;;;;;-4.92;100.00;98918.71;110569;1241;60492;-60
2024/01/21 08:16:10;;;;;;;;;;;;;;;-4.80;100.00;98916.48;110546;1241;60543;-58
2024/01/21 08:18:39;;;;;;;;;;;;;;;-4.69;100.00;98920.19;110529;1238;72732;-58
2024/01/21 08:21:08;;;;;;;;;;;;;;;-4.59;100.00;98921.33;110550;1241;68255;-56
2024/01/21 08:23:40;;;;;;;;;;;;;;;-4.46;100.00;98921.48;110424;1241;69199;-59
2024/01/21 08:26:09;;;;;;;;;;;;;;;-4.34;100.00;98915.98;110505;1241;60552;-59
2024/01/21 08:28:38;;;;;;;;;;;;;;;-4.24;100.00;98910.98;110409;1241;60481;-58
2024/01/21 08:31:07;;;;;;;;;;;;;;;-4.18;100.00;98909.34;110425;1241;72002;-58
2024/01/21 08:33:37;;;;;;;;;;;;;;;-4.21;100.00;98908.98;110441;1243;69528;-58
2024/01/21 08:36:07;;;;;;;;;;;;;;;-4.22;100.00;98913.39;110370;1241;69885;-57
2024/01/21 08:38:38;;;;;;;;;;;;;;;-4.21;100.00;98917.31;110387;1238;60463;-58
2024/01/21 08:41:07;;;;;;;;;;;;;;;-4.17;100.00;98918.71;110444;1248;60509;-57
2024/01/21 08:43:36;;;;;;;;;;;;;;;-4.15;100.00;98921.80;110467;1238;72145;-58
2024/01/21 08:46:04;;;;;;;;;;;;;;;-4.11;100.00;98926.44;110376;1239;69168;-56
2024/01/21 08:48:33;;;;;;;;;;;;;;;-4.06;100.00;98929.21;110343;1241;68815;-56
2024/01/21 08:51:03;;;;;;;;;;;;;;;-3.84;100.00;98934.19;110369;1241;60543;-56
2024/01/21 08:53:31;;;;;;;;;;;;;;;-3.59;100.00;98936.77;110385;1242;60523;-55
2024/01/21 08:56:00;;;;;;;;;;;;;;;-2.87;100.00;98943.21;110481;1241;72751;-58
2024/01/21 08:58:29;;;;;;;;;;;;;;;-1.88;100.00;98934.48;110401;1241;69196;-57
2024/01/21 09:00:58;;;;;;;;;;;;;;;-1.10;97.78;98934.46;110355;1242;69649;-58
2024/01/21 09:03:27;;;;;;;;;;;;;;;-0.28;92.31;98931.77;110485;1248;60498;-58
2024/01/21 09:05:56;;;;;;;;;;;;;;;0.45;84.74;98933.18;110465;1242;60525;-58
2024/01/21 09:08:26;;;;;;;;;;;;;;;1.09;81.03;98932.91;110453;1241;72758;-60
2024/01/21 09:10:54;;;;;;;;;;;;;;;1.87;77.47;98932.84;110460;1241;69203;-59
2024/01/21 09:13:23;;;;;;;;;;;;;;;2.66;79.57;98930.77;110460;1240;69872;-59
2024/01/21 09:15:52;;;;;;;;;;;;;;;3.60;78.56;98924.04;110466;1244;60537;-57
2024/01/21 09:18:22;;;;;;;;;;;;;;;4.14;73.16;98922.16;110363;1242;60505;-60
2024/01/21 09:20:51;;;;;;;;;;;;;;;4.60;68.45;98918.30;110395;1240;72193;-59
2024/01/21 09:23:20;;;;;;;;;;;;;;;5.38;71.16;98920.90;110292;1242;69107;-61
2024/01/21 09:25:49;;;;;;;;;;;;;;;5.89;65.77;98919.13;110446;1242;69902;-59
2024/01/21 09:28:18;;;;;;;;;;;;;;;5.05;58.63;98916.59;110400;1242;60562;-60
2024/01/21 09:30:50;;;;;;;;;;;;;;;5.22;61.02;98915.84;110434;1242;60486;-60
2024/01/21 09:33:20;;;;;;;;;;;;;;;5.21;61.91;98919.13;110447;1238;72743;-59
2024/01/21 09:35:50;;;;;;;;;;;;;;;4.67;59.04;98925.52;110434;1240;69281;-60
2024/01/21 09:38:21;;;;;;;;;;;;;;;3.78;61.74;98929.51;110523;1242;67606;-59
2024/01/21 09:40:55;;;;;;;;;;;;;;;2.89;64.55;98935.02;110391;1241;60484;-60
2024/01/21 09:43:27;;;;;;;;;;;;;;;2.64;66.82;98932.54;110359;1241;60486;-59
2024/01/21 09:45:57;;;;;;;;;;;;;;;1.86;70.42;98930.61;110355;1241;72001;-58
2024/01/21 09:48:27;;;;;;;;;;;;;;;1.53;72.37;98929.49;110372;1241;69848;-59
2024/01/21 09:50:57;;;;;;;;;;;;;;;1.28;74.52;98932.38;110326;1241;69898;-59
2024/01/21 09:53:26;;;;;;;;;;;;;;;1.31;74.50;98932.35;110370;1244;60499;-58
2024/01/21 09:55:58;;;;;;;;;;;;;;;1.83;73.70;98929.63;110408;1243;60463;-59
2024/01/21 09:58:28;;;;;;;;;;;;;;;2.28;72.18;98929.83;110373;1240;72597;-60
2024/01/21 10:00:57;;;;;;;;;;;;;;;2.48;70.92;98931.59;110416;1238;69294;-59
2024/01/21 10:03:26;;;;;;;;;;;;;;;2.73;70.78;98939.79;110375;1241;69108;-59
2024/01/21 10:05:55;;;;;;;;;;;;;;;2.90;70.18;98940.70;110429;1241;60551;-60
2024/01/21 10:08:24;;;;;;;;;;;;;;;2.81;67.68;98941.02;110364;1241;60545;-60
2024/01/21 10:10:54;;;;;;;;;;;;;;;2.96;68.65;98943.51;110354;1241;72167;-59
2024/01/21 10:13:23;;;;;;;;;;;;;;;3.32;67.15;98937.00;110384;1241;69550;-60
2024/01/21 10:15:52;;;;;;;;;;;;;;;3.51;67.36;98933.34;110390;1242;69133;-60
2024/01/21 10:18:21;;;;;;;;;;;;;;;3.65;68.62;98929.44;110401;1242;60566;-60
2024/01/21 10:20:51;;;;;;;;;;;;;;;4.39;68.16;98928.84;110326;1241;60440;-59
2024/01/21 10:23:20;;;;;;;;;;;;;;;4.32;63.75;98928.83;110375;1238;72853;-59
2024/01/21 10:25:49;;;;;;;;;;;;;;;4.33;62.75;98929.33;110438;1241;69248;-59
2024/01/21 10:28:17;;;;;;;;;;;;;;;4.90;64.52;98924.79;110370;1242;69809;-59
2024/01/21 10:30:46;;;;;;;;;;;;;;;5.44;62.50;98924.02;110373;1238;60500;-59
2024/01/21 10:33:16;;;;;;;;;;;;;;;5.98;55.70;98916.25;110359;1241;60549;-60
2024/01/21 10:35:47;;;;;;;;;;;;;;;6.30;54.23;98917.54;110489;1241;72502;-60
2024/01/21 10:38:18;;;;;;;;;;;;;;;7.39;58.56;98907.75;110367;1241;69637;-60
2024/01/21 10:40:48;;;;;;;;;;;;;;;7.78;53.77;98909.25;110386;1248;69075;-60
2024/01/21 10:43:18;;;;;;;;;;;;;;;8.88;55.33;98910.13;110295;1248;60500;-60
2024/01/21 10:45:53;;;;;;;;;;;;;;;9.07;48.33;98909.47;110361;1241;60483;-59
2024/01/21 10:48:22;;;;;;;;;;;;;;;9.24;48.39;98906.70;110393;1241;72544;-60
2024/01/21 10:50:54;;;;;;;;;;;;;;;9.86;48.44;98906.85;110401;1241;68733;-60
2024/01/21 10:53:24;;;;;;;;;;;;;;;10.55;49.37;98911.08;110387;1241;70252;-60
2024/01/21 10:55:54;;;;;;;;;;;;;;;10.37;45.45;98909.52;110359;1248;60540;-59
2024/01/21 10:58:23;;;;;;;;;;;;;;;10.54;47.51;98908.35;110382;1241;60481;-59
2024/01/21 11:01:04;;;;;;;;;;;;;;;10.65;44.39;98903.92;107306;1269;596112;-59
2024/01/21 11:03:35;;;;;;;;;;;;;;;9.86;43.01;98906.10;109280;1253;58098;-59
2024/01/21 11:06:07;;;;;;;;;;;;;;;9.06;45.33;98903.29;109279;1254;57675;-59
2024/01/21 11:08:37;;;;;;;;;;;;;;;9.17;45.43;98899.31;109289;1253;67351;-60
2024/01/21 11:11:06;;;;;;;;;;;;;;;9.28;43.31;98899.71;109275;1253;69256;-59
2024/01/21 11:13:54;;;;;;;;;;;;;;;10.01;41.99;98899.20;108839;1254;551587;-59
2024/01/21 11:16:26;;;;;;;;;;;;;;;10.22;40.96;98896.96;109325;1250;57624;-59
2024/01/21 11:19:02;;;;;;;;;;;;;;;10.40;40.98;98899.23;109457;1254;57700;-61
2024/01/21 11:21:31;;;;;;;;;;;;;;;10.54;40.95;98895.95;109374;1250;69841;-60
2024/01/21 11:24:06;;;;;;;;;;;;;;;11.27;39.65;98889.66;109325;1252;69836;-60
2024/01/21 11:26:36;;;;;;;;;;;;;;;11.93;38.08;98887.92;109373;1249;69249;-60
2024/01/21 11:29:41;;;;;;;;;;;;;;;11.76;38.28;98887.59;109320;1252;58079;-60
2024/01/21 11:32:10;;;;;;;;;;;;;;;11.57;38.51;98887.73;108823;1259;58050;-59
2024/01/21 11:34:41;;;;;;;;;;;;;;;11.64;38.91;98887.86;109227;1252;69008;-60
2024/01/21 11:37:13;;;;;;;;;;;;;;;11.24;39.08;98886.28;109335;1254;69717;-59
2024/01/21 11:39:43;;;;;;;;;;;;;;;11.57;39.91;98883.73;109656;1249;69787;-60
2024/01/21 11:42:12;;;;;;;;;;;;;;;11.44;38.27;98884.39;109609;1247;58074;-59
2024/01/21 11:44:41;;;;;;;;;;;;;;;11.48;37.80;98883.30;109607;1247;58159;-58
2024/01/21 11:47:11;;;;;;;;;;;;;;;11.14;38.39;98884.05;109636;1246;69793;-60
2024/01/21 11:49:41;;;;;;;;;;;;;;;11.82;37.39;98880.28;109688;1247;69167;-60
2024/01/21 11:52:10;;;;;;;;;;;;;;;12.17;36.40;98876.64;109941;1248;69740;-60
2024/01/21 11:54:39;;;;;;;;;;;;;;;11.74;37.04;98877.91;109856;1246;58101;-59
2024/01/21 11:57:08;;;;;;;;;;;;;;;12.19;36.93;98880.33;109764;1248;58066;-60
2024/01/21 11:59:37;;;;;;;;;;;;;;;12.32;36.05;98881.75;109875;1248;69735;-60
2024/01/21 12:02:08;;;;;;;;;;;;;;;11.73;34.89;98881.25;109743;1247;68291;-59
2024/01/21 12:04:38;;;;;;;;;;;;;;;10.59;36.11;98886.16;109797;1248;69851;-60
2024/01/21 12:07:09;;;;;;;;;;;;;;;11.23;37.31;98883.73;109731;1245;58108;-61
2024/01/21 12:09:38;;;;;;;;;;;;;;;11.67;36.87;98886.30;109832;1248;58583;-60
2024/01/21 12:12:08;;;;;;;;;;;;;;;12.63;37.14;98880.31;109816;1248;70380;-60
2024/01/21 12:14:38;;;;;;;;;;;;;;;11.65;36.35;98877.46;109717;1247;69569;-61
2024/01/21 12:17:07;;;;;;;;;;;;;;;10.81;36.84;98882.04;109731;1247;68961;-59
2024/01/21 12:19:36;;;;;;;;;;;;;;;11.18;36.68;98877.20;109776;1247;58083;-59
2024/01/21 12:22:05;;;;;;;;;;;;;;;11.78;36.07;98872.10;109798;1247;58157;-59
2024/01/21 12:24:39;;;;;;;;;;;;;;;12.08;35.50;98873.41;109756;1246;70382;-59
2024/01/21 12:27:08;;;;;;;;;;;;;;;12.52;33.75;98870.28;109670;1247;69120;-59
2024/01/21 12:29:37;;;;;;;;;;;;;;;12.43;34.03;98871.98;109646;1246;69129;-59
2024/01/21 12:32:06;;;;;;;;;;;;;;;12.78;33.82;98871.34;109713;1247;58150;-61
2024/01/21 12:34:36;;;;;;;;;;;;;;;12.77;34.24;98868.63;109714;1247;58096;-60
2024/01/21 12:37:06;;;;;;;;;;;;;;;12.68;32.69;98861.73;109753;1247;70208;-60
2024/01/21 12:39:35;;;;;;;;;;;;;;;12.99;32.39;98867.31;109663;1247;69235;-60
2024/01/21 12:42:04;;;;;;;;;;;;;;;13.35;31.59;98863.05;109678;1248;69937;-59
2024/01/21 12:44:33;;;;;;;;;;;;;;;12.37;32.50;98864.08;109714;1245;58125;-59
2024/01/21 12:47:02;;;;;;;;;;;;;;;11.88;33.58;98863.70;109716;1248;58090;-59